createdAt,value
2019-02-25T00:00:22.879Z,16.07
2019-02-25T00:02:51.347Z,16.83
2019-02-25T00:05:19.731Z,16.13
2019-02-25T00:07:48.120Z,17.03
2019-02-25T00:10:16.491Z,16.43
2019-02-25T00:12:44.902Z,15.57
2019-02-25T00:15:13.307Z,16.00
2019-02-25T00:17:41.689Z,16.17
2019-02-25T00:20:11.539Z,17.33
2019-02-25T00:22:39.908Z,16.53
2019-02-25T00:25:10.258Z,15.57
2019-02-25T00:27:38.645Z,15.37
2019-02-25T00:30:12.386Z,16.00
2019-02-25T00:32:40.795Z,17.57
2019-02-25T00:35:09.172Z,16.90
2019-02-25T00:37:37.578Z,17.10
2019-02-25T00:40:07.997Z,16.27
2019-02-25T00:42:36.459Z,17.17
2019-02-25T00:45:07.882Z,16.10
2019-02-25T00:47:36.400Z,16.10
2019-02-25T00:50:08.092Z,15.57
2019-02-25T00:52:36.474Z,16.00
2019-02-25T00:55:06.938Z,17.83
2019-02-25T00:57:35.308Z,16.27
2019-02-25T01:00:06.422Z,15.87
2019-02-25T01:02:34.784Z,16.93
2019-02-25T01:05:03.176Z,15.73
2019-02-25T01:07:31.569Z,16.70
2019-02-25T01:09:59.956Z,15.53
2019-02-25T01:12:28.356Z,15.13
2019-02-25T01:14:56.760Z,15.87
2019-02-25T01:17:25.138Z,16.60
2019-02-25T01:19:53.540Z,15.47
2019-02-25T01:22:21.926Z,14.70
2019-02-25T01:24:50.327Z,16.03
2019-02-25T01:27:18.758Z,16.57
2019-02-25T01:29:47.166Z,15.70
2019-02-25T01:32:15.573Z,15.10
2019-02-25T01:34:43.958Z,16.00
2019-02-25T01:37:12.365Z,15.77
2019-02-25T01:39:40.743Z,15.47
2019-02-25T01:42:09.146Z,15.50
2019-02-25T01:44:37.608Z,15.93
2019-02-25T01:47:06.012Z,16.40
2019-02-25T01:49:34.410Z,15.63
2019-02-25T01:52:02.784Z,15.60
2019-02-25T01:54:31.188Z,16.00
2019-02-25T01:56:59.565Z,14.03
2019-02-25T01:59:27.968Z,15.07
2019-02-25T02:01:56.351Z,15.93
2019-02-25T02:04:24.761Z,15.50
2019-02-25T02:06:53.176Z,15.33
2019-02-25T02:09:21.547Z,15.53
2019-02-25T02:11:49.951Z,15.63
2019-02-25T02:14:18.353Z,15.30
2019-02-25T02:16:46.741Z,14.53
2019-02-25T02:19:15.156Z,15.17
2019-02-25T02:21:43.534Z,15.23
2019-02-25T02:24:11.945Z,14.83
2019-02-25T02:26:40.348Z,14.83
2019-02-25T02:29:08.755Z,15.17
2019-02-25T02:31:37.144Z,15.50
2019-02-25T02:34:05.564Z,14.87
2019-02-25T02:36:33.968Z,15.30
2019-02-25T02:39:02.415Z,15.50
2019-02-25T02:41:34.081Z,15.33
2019-02-25T02:44:02.474Z,15.27
2019-02-25T02:46:50.645Z,16.97
2019-02-25T02:49:19.058Z,14.93
2019-02-25T02:51:47.434Z,14.20
2019-02-25T02:54:15.847Z,15.30
2019-02-25T02:56:44.227Z,14.93
2019-02-25T02:59:12.716Z,14.70
2019-02-25T03:01:41.092Z,14.73
2019-02-25T03:04:09.508Z,15.70
2019-02-25T03:06:37.906Z,15.13
2019-02-25T03:09:07.944Z,15.90
2019-02-25T03:11:36.490Z,14.93
2019-02-25T03:14:04.872Z,15.63
2019-02-25T03:16:33.278Z,14.13
2019-02-25T03:19:01.656Z,14.47
2019-02-25T03:21:30.062Z,14.77
2019-02-25T03:23:58.445Z,13.37
2019-02-25T03:26:26.864Z,14.50
2019-02-25T03:28:55.251Z,14.17
2019-02-25T03:31:23.644Z,13.80
2019-02-25T03:33:52.065Z,14.10
2019-02-25T03:36:20.459Z,13.60
2019-02-25T03:38:48.871Z,12.30
2019-02-25T03:41:17.277Z,12.63
2019-02-25T03:43:45.646Z,12.37
2019-02-25T03:46:14.055Z,11.40
2019-02-25T03:48:42.455Z,11.60
2019-02-25T03:51:10.829Z,11.80
2019-02-25T03:53:39.293Z,12.60
2019-02-25T03:56:07.674Z,11.57
2019-02-25T03:58:36.153Z,11.23
2019-02-25T04:01:04.529Z,10.73
2019-02-25T04:03:32.941Z,10.83
2019-02-25T04:06:01.327Z,10.03
2019-02-25T04:08:29.697Z,10.57
2019-02-25T04:10:58.101Z,10.03
2019-02-25T04:13:26.492Z,10.03
2019-02-25T04:15:54.900Z,11.10
2019-02-25T04:18:23.331Z,11.67
2019-02-25T04:20:51.659Z,11.13
2019-02-25T04:23:20.064Z,11.77
2019-02-25T04:25:48.445Z,11.07
2019-02-25T04:28:16.848Z,10.70
2019-02-25T04:30:45.338Z,10.97
2019-02-25T04:33:13.912Z,12.00
2019-02-25T04:35:42.304Z,11.63
2019-02-25T04:38:10.703Z,10.73
2019-02-25T04:40:39.117Z,10.93
2019-02-25T04:43:07.488Z,11.37
2019-02-25T04:45:35.941Z,12.07
2019-02-25T04:48:04.326Z,10.97
2019-02-25T04:50:32.721Z,10.77
2019-02-25T04:53:01.128Z,11.37
2019-02-25T04:55:29.518Z,11.53
2019-02-25T04:57:57.978Z,11.50
2019-02-25T05:00:26.779Z,10.80
2019-02-25T05:02:55.154Z,10.67
2019-02-25T05:05:23.566Z,11.90
2019-02-25T05:07:51.947Z,11.07
2019-02-25T05:10:20.350Z,11.27
2019-02-25T05:12:50.367Z,11.47
2019-02-25T05:15:20.414Z,10.93
2019-02-25T05:17:48.787Z,11.40
2019-02-25T05:20:17.199Z,11.47
2019-02-25T05:22:45.578Z,11.87
2019-02-25T05:25:13.966Z,11.50
2019-02-25T05:27:42.359Z,11.93
2019-02-25T05:30:14.844Z,12.17
2019-02-25T05:32:43.236Z,11.97
2019-02-25T05:35:12.755Z,12.03
2019-02-25T05:37:41.170Z,12.60
2019-02-25T05:40:15.366Z,10.97
2019-02-25T05:42:43.832Z,12.50
2019-02-25T05:45:13.167Z,12.30
2019-02-25T05:47:41.547Z,12.00
2019-02-25T05:50:15.818Z,11.80
2019-02-25T05:52:44.209Z,11.50
2019-02-25T05:55:13.971Z,11.50
2019-02-25T05:57:42.326Z,11.67
2019-02-25T06:00:15.478Z,11.80
2019-02-25T06:02:43.904Z,11.33
2019-02-25T06:05:12.280Z,11.07
2019-02-25T06:07:40.700Z,11.13
2019-02-25T06:10:10.420Z,11.23
2019-02-25T06:12:38.830Z,10.20
2019-02-25T06:15:15.312Z,11.20
2019-02-25T06:17:43.732Z,11.50
2019-02-25T06:20:14.444Z,11.70
2019-02-25T06:22:42.821Z,11.73
2019-02-25T06:25:13.424Z,11.27
2019-02-25T06:27:41.811Z,11.80
2019-02-25T06:30:15.808Z,11.33
2019-02-25T06:32:44.204Z,12.17
2019-02-25T06:35:12.671Z,11.60
2019-02-25T06:37:41.089Z,11.20
2019-02-25T06:40:12.395Z,11.50
2019-02-25T06:42:40.780Z,11.30
2019-02-25T06:45:11.840Z,12.13
2019-02-25T06:47:40.200Z,11.60
2019-02-25T06:50:10.257Z,11.03
2019-02-25T06:52:38.614Z,11.30
2019-02-25T06:55:15.131Z,11.47
2019-02-25T06:57:43.499Z,11.33
2019-02-25T07:00:16.445Z,12.13
2019-02-25T07:02:44.848Z,12.43
2019-02-25T07:05:17.610Z,11.77
2019-02-25T07:07:50.217Z,11.73
2019-02-25T07:10:36.431Z,11.27
2019-02-25T07:13:18.491Z,11.37
2019-02-25T07:15:57.549Z,11.63
2019-02-25T07:18:45.626Z,10.97
2019-02-25T07:21:15.676Z,10.87
2019-02-25T07:23:51.439Z,11.97
2019-02-25T07:26:30.470Z,11.70
2019-02-25T07:29:16.999Z,11.37
2019-02-25T07:31:59.127Z,11.60
2019-02-25T07:34:38.065Z,10.37
2019-02-25T07:37:17.023Z,11.77
2019-02-25T07:39:56.107Z,11.33
2019-02-25T07:42:42.407Z,11.30
2019-02-25T07:45:24.195Z,11.30
2019-02-25T07:48:03.282Z,11.43
2019-02-25T07:50:46.938Z,11.33
2019-02-25T07:53:11.024Z,10.17
2019-02-25T07:55:41.033Z,12.03
2019-02-25T07:58:23.252Z,11.07
2019-02-25T08:00:53.303Z,11.47
2019-02-25T08:03:35.623Z,10.20
2019-02-25T08:06:17.714Z,11.13
2019-02-25T08:08:56.500Z,11.03
2019-02-25T08:11:43.008Z,11.10
2019-02-25T08:14:13.042Z,11.60
2019-02-25T08:16:54.907Z,11.73
2019-02-25T08:19:30.639Z,11.07
2019-02-25T08:22:17.452Z,11.00
2019-02-25T08:25:03.959Z,10.90
2019-02-25T08:27:42.848Z,11.33
2019-02-25T08:30:13.726Z,11.03
2019-02-25T08:32:46.616Z,11.97
2019-02-25T08:35:25.699Z,11.43
2019-02-25T08:38:11.159Z,11.43
2019-02-25T08:41:00.948Z,10.80
2019-02-25T08:43:46.168Z,11.50
2019-02-25T08:46:24.716Z,10.77
2019-02-25T08:48:54.702Z,11.37
2019-02-25T08:51:23.084Z,10.77
2019-02-25T08:53:51.496Z,11.23
2019-02-25T08:56:19.886Z,10.73
2019-02-25T08:58:48.264Z,10.10
2019-02-25T09:01:16.678Z,10.57
2019-02-25T09:03:45.060Z,10.90
2019-02-25T09:06:13.471Z,10.37
2019-02-25T09:08:41.855Z,11.47
2019-02-25T09:11:14.174Z,11.83
2019-02-25T09:13:40.303Z,11.23
2019-02-25T09:16:08.708Z,11.57
2019-02-25T09:18:37.124Z,10.77
2019-02-25T09:21:05.534Z,11.20
2019-02-25T09:23:33.954Z,10.43
2019-02-25T09:26:02.349Z,11.07
2019-02-25T09:28:30.762Z,10.77
2019-02-25T09:30:59.160Z,10.87
2019-02-25T09:33:27.592Z,11.33
2019-02-25T09:35:56.002Z,10.63
2019-02-25T09:38:24.376Z,9.77
2019-02-25T09:40:52.780Z,11.33
2019-02-25T09:43:21.182Z,10.73
2019-02-25T09:45:49.588Z,10.13
2019-02-25T09:48:17.984Z,9.60
2019-02-25T09:50:46.393Z,9.33
2019-02-25T09:53:14.795Z,8.90
2019-02-25T09:55:43.204Z,10.53
2019-02-25T09:58:11.656Z,9.73
2019-02-25T10:00:40.059Z,10.20
2019-02-25T10:03:08.446Z,9.53
2019-02-25T10:05:36.851Z,9.27
2019-02-25T10:08:05.264Z,9.50
2019-02-25T10:10:33.699Z,9.73
2019-02-25T10:13:02.107Z,8.40
2019-02-25T10:15:30.506Z,8.87
2019-02-25T10:17:58.913Z,8.53
2019-02-25T10:20:27.300Z,8.30
2019-02-25T10:22:55.718Z,8.27
2019-02-25T10:25:24.196Z,8.10
2019-02-25T10:27:52.617Z,8.20
2019-02-25T10:30:21.005Z,8.00
2019-02-25T10:32:49.406Z,8.10
2019-02-25T10:35:24.710Z,7.83
2019-02-25T10:37:52.633Z,7.90
2019-02-25T10:40:24.443Z,8.50
2019-02-25T10:42:51.074Z,8.13
2019-02-25T10:45:20.569Z,5.83
2019-02-25T10:47:49.460Z,7.37
2019-02-25T10:50:18.974Z,7.53
2019-02-25T10:52:49.401Z,6.47
2019-02-25T10:55:23.586Z,6.47
2019-02-25T10:57:52.841Z,6.30
2019-02-25T11:00:22.347Z,6.33
2019-02-25T11:02:51.176Z,6.23
2019-02-25T11:05:21.625Z,6.37
2019-02-25T11:07:50.886Z,7.33
2019-02-25T11:10:22.365Z,7.33
2019-02-25T11:12:50.903Z,9.63
2019-02-25T11:15:19.321Z,14.20
2019-02-25T11:17:49.607Z,8.73
2019-02-25T11:20:17.757Z,7.10
2019-02-25T11:22:48.317Z,8.63
2019-02-25T11:25:16.186Z,8.37
2019-02-25T11:27:44.573Z,5.77
2019-02-25T11:30:16.604Z,5.80
2019-02-25T11:32:45.599Z,5.60
2019-02-25T11:35:15.607Z,5.80
2019-02-25T11:37:44.001Z,5.30
2019-02-25T11:40:15.663Z,6.10
2019-02-25T11:42:44.038Z,5.60
2019-02-25T11:45:17.696Z,4.90
2019-02-25T11:47:46.080Z,5.80
2019-02-25T11:50:21.027Z,4.93
2019-02-25T11:52:49.419Z,4.17
2019-02-25T11:55:17.784Z,4.20
2019-02-25T11:57:46.154Z,4.73
2019-02-25T12:00:20.829Z,4.73
2019-02-25T12:02:49.206Z,4.73
2019-02-25T12:05:18.618Z,5.10
2019-02-25T12:07:47.088Z,5.07
2019-02-25T12:10:16.274Z,4.60
2019-02-25T12:12:44.683Z,4.90
2019-02-25T12:15:16.327Z,5.33
2019-02-25T12:17:44.707Z,4.60
2019-02-25T12:20:14.162Z,4.27
2019-02-25T12:22:42.564Z,3.80
2019-02-25T12:25:19.657Z,4.40
2019-02-25T12:27:48.064Z,4.23
2019-02-25T12:30:22.332Z,4.57
2019-02-25T12:32:50.744Z,4.43
2019-02-25T12:35:19.144Z,4.43
2019-02-25T12:37:47.570Z,4.53
2019-02-25T12:40:16.716Z,4.57
2019-02-25T12:42:45.094Z,4.50
2019-02-25T12:45:14.553Z,3.90
2019-02-25T12:47:43.008Z,4.37
2019-02-25T12:50:16.019Z,4.07
2019-02-25T12:52:44.423Z,4.17
2019-02-25T12:55:16.798Z,4.00
2019-02-25T12:57:45.170Z,3.80
2019-02-25T13:00:19.688Z,4.03
2019-02-25T13:02:48.096Z,4.50
2019-02-25T13:05:26.118Z,4.20
2019-02-25T13:07:54.524Z,4.60
2019-02-25T13:10:22.902Z,4.40
2019-02-25T13:12:51.761Z,4.70
2019-02-25T13:16:27.086Z,4.33
2019-02-25T13:18:55.512Z,4.10
2019-02-25T13:21:23.907Z,4.40
2019-02-25T13:23:52.284Z,4.53
2019-02-25T13:26:20.678Z,4.70
2019-02-25T13:28:49.058Z,4.50
2019-02-25T13:31:17.671Z,4.50
2019-02-25T13:33:46.070Z,5.10
2019-02-25T13:36:14.452Z,5.80
2019-02-25T13:38:42.832Z,5.73
2019-02-25T13:41:11.245Z,5.37
2019-02-25T13:43:39.619Z,5.33
2019-02-25T13:46:08.019Z,5.03
2019-02-25T13:48:36.398Z,4.80
2019-02-25T13:51:04.799Z,5.10
2019-02-25T13:53:33.190Z,4.90
2019-02-25T13:56:01.567Z,5.23
2019-02-25T13:58:29.971Z,5.23
2019-02-25T14:00:58.353Z,5.33
2019-02-25T14:03:26.753Z,5.17
2019-02-25T14:05:55.162Z,4.93
2019-02-25T14:08:23.538Z,5.03
2019-02-25T14:10:51.930Z,5.50
2019-02-25T14:13:20.331Z,4.80
2019-02-25T14:15:48.723Z,5.10
2019-02-25T14:18:17.131Z,4.83
2019-02-25T14:20:45.528Z,4.53
2019-02-25T14:23:16.019Z,4.73
2019-02-25T14:25:43.951Z,4.90
2019-02-25T14:28:12.332Z,4.43
2019-02-25T14:30:40.709Z,4.83
2019-02-25T14:33:09.094Z,5.30
2019-02-25T14:35:37.535Z,5.03
2019-02-25T14:38:15.334Z,5.20
2019-02-25T14:40:43.797Z,4.87
2019-02-25T14:43:13.180Z,4.47
2019-02-25T14:45:44.135Z,4.50
2019-02-25T14:48:15.435Z,4.50
2019-02-25T14:50:42.126Z,5.00
2019-02-25T14:53:11.420Z,4.53
2019-02-25T14:55:42.568Z,4.40
2019-02-25T14:58:12.449Z,4.73
2019-02-25T15:00:40.610Z,4.80
2019-02-25T15:03:08.995Z,4.90
2019-02-25T15:05:37.542Z,4.53
2019-02-25T15:08:05.931Z,4.93
2019-02-25T15:10:36.108Z,5.13
2019-02-25T15:13:06.085Z,4.80
2019-02-25T15:15:34.908Z,4.57
2019-02-25T15:18:03.752Z,4.33
2019-02-25T15:20:32.454Z,4.23
2019-02-25T15:23:00.859Z,4.90
2019-02-25T15:25:31.356Z,4.43
2019-02-25T15:27:59.283Z,4.43
2019-02-25T15:30:31.501Z,5.23
2019-02-25T15:33:00.107Z,4.70
2019-02-25T15:35:31.681Z,4.43
2019-02-25T15:38:00.369Z,4.80
2019-02-25T15:40:29.140Z,4.60
2019-02-25T15:43:03.463Z,5.47
2019-02-25T15:45:35.386Z,4.10
2019-02-25T15:48:04.371Z,4.63
2019-02-25T15:50:33.120Z,4.40
2019-02-25T15:53:03.310Z,4.47
2019-02-25T15:55:31.551Z,4.47
2019-02-25T15:57:59.947Z,4.57
2019-02-25T16:00:30.000Z,4.03
2019-02-25T16:02:58.671Z,4.10
2019-02-25T16:05:29.555Z,4.30
2019-02-25T16:07:59.953Z,4.03
2019-02-25T16:10:28.514Z,3.73
2019-02-25T16:12:57.872Z,4.10
2019-02-25T16:15:27.002Z,4.10
2019-02-25T16:17:55.398Z,4.30
2019-02-25T16:20:25.213Z,4.43
2019-02-25T16:22:56.287Z,4.70
2019-02-25T16:25:25.228Z,4.20
2019-02-25T16:27:54.902Z,4.60
2019-02-25T16:30:23.984Z,4.43
2019-02-25T16:32:53.327Z,4.77
2019-02-25T16:35:21.702Z,4.30
2019-02-25T16:37:50.814Z,4.60
2019-02-25T16:40:24.407Z,4.67
2019-02-25T16:42:50.731Z,4.00
2019-02-25T16:45:21.227Z,5.30
2019-02-25T16:47:49.612Z,4.87
2019-02-25T16:50:18.703Z,4.07
2019-02-25T16:52:49.585Z,5.07
2019-02-25T16:55:23.382Z,4.50
2019-02-25T16:57:52.502Z,4.73
2019-02-25T17:00:25.255Z,4.70
2019-02-25T17:02:53.366Z,5.43
2019-02-25T17:05:22.412Z,5.07
2019-02-25T17:07:50.892Z,5.23
2019-02-25T17:10:24.116Z,5.20
2019-02-25T17:12:52.545Z,6.10
2019-02-25T17:15:21.874Z,6.73
2019-02-25T17:17:52.415Z,5.80
2019-02-25T17:20:21.379Z,5.83
2019-02-25T17:22:49.847Z,6.07
2019-02-25T17:25:18.526Z,5.63
2019-02-25T17:27:46.912Z,5.87
2019-02-25T17:30:21.949Z,5.40
2019-02-25T17:32:50.552Z,6.30
2019-02-25T17:35:21.435Z,6.70
2019-02-25T17:37:50.783Z,6.30
2019-02-25T17:40:19.508Z,6.30
2019-02-25T17:42:49.485Z,7.73
2019-02-25T17:45:27.730Z,7.67
2019-02-25T17:47:58.305Z,7.17
2019-02-25T17:50:26.442Z,7.20
2019-02-25T17:52:54.820Z,7.87
2019-02-25T17:55:29.461Z,8.63
2019-02-25T17:58:00.830Z,8.30
2019-02-25T18:00:31.977Z,7.03
2019-02-25T18:03:03.198Z,8.03
2019-02-25T18:05:33.476Z,6.93
2019-02-25T18:08:02.991Z,8.67
2019-02-25T18:10:31.570Z,8.80
2019-02-25T18:13:01.256Z,7.83
2019-02-25T18:15:33.598Z,7.90
2019-02-25T18:18:01.980Z,9.73
2019-02-25T18:20:30.656Z,10.97
2019-02-25T18:22:59.368Z,11.37
2019-02-25T18:25:27.783Z,12.40
2019-02-25T18:27:56.200Z,11.80
2019-02-25T18:30:31.368Z,11.30
2019-02-25T18:33:01.131Z,11.73
2019-02-25T18:35:30.272Z,12.30
2019-02-25T18:38:00.382Z,12.93
2019-02-25T18:40:28.862Z,18.63
2019-02-25T18:42:58.200Z,15.63
2019-02-25T18:45:27.303Z,16.03
2019-02-25T18:47:55.691Z,15.37
2019-02-25T18:50:26.829Z,15.37
2019-02-25T18:52:56.706Z,14.73
2019-02-25T18:55:29.243Z,14.07
2019-02-25T18:57:57.254Z,13.13
2019-02-25T19:00:29.994Z,12.40
2019-02-25T19:03:00.200Z,11.70
2019-02-25T19:05:29.315Z,11.53
2019-02-25T19:07:58.541Z,11.43
2019-02-25T19:10:27.093Z,10.87
2019-02-25T19:12:56.456Z,11.57
2019-02-25T19:15:25.534Z,11.83
2019-02-25T19:17:54.453Z,10.73
2019-02-25T19:20:22.921Z,11.50
2019-02-25T19:22:51.343Z,11.67
2019-02-25T19:25:20.870Z,11.03
2019-02-25T19:27:50.624Z,11.73
2019-02-25T19:30:22.152Z,10.90
2019-02-25T19:32:49.888Z,10.90
2019-02-25T19:35:18.334Z,11.20
2019-02-25T19:37:46.888Z,11.07
2019-02-25T19:40:22.532Z,10.40
2019-02-25T19:42:51.564Z,11.13
2019-02-25T19:45:20.206Z,11.10
2019-02-25T19:47:48.685Z,11.10
2019-02-25T19:50:18.540Z,11.67
2019-02-25T19:52:46.997Z,11.50
2019-02-25T19:55:17.748Z,11.80
2019-02-25T19:57:45.739Z,12.10
2019-02-25T20:00:22.337Z,12.83
2019-02-25T20:02:51.127Z,11.60
2019-02-25T20:05:21.748Z,12.83
2019-02-25T20:07:50.044Z,12.63
2019-02-25T20:10:18.602Z,11.70
2019-02-25T20:12:50.085Z,11.70
2019-02-25T20:15:25.027Z,12.07
2019-02-25T20:17:53.310Z,11.70
2019-02-25T20:20:21.811Z,12.23
2019-02-25T20:22:50.195Z,12.00
2019-02-25T20:25:19.404Z,11.67
2019-02-25T20:27:48.942Z,11.03
2019-02-25T20:30:21.354Z,11.50
2019-02-25T20:32:49.388Z,11.00
2019-02-25T20:35:19.893Z,11.83
2019-02-25T20:37:52.952Z,12.17
2019-02-25T20:40:21.822Z,12.57
2019-02-25T20:42:51.225Z,11.60
2019-02-25T20:45:33.247Z,11.40
2019-02-25T20:48:01.927Z,11.80
2019-02-25T20:50:30.484Z,12.30
2019-02-25T20:53:03.005Z,11.87
2019-02-25T20:55:29.861Z,17.37
2019-02-25T20:57:59.134Z,14.07
2019-02-25T21:00:27.583Z,13.23
2019-02-25T21:02:56.011Z,11.93
2019-02-25T21:05:26.804Z,11.63
2019-02-25T21:07:55.483Z,12.07
2019-02-25T21:10:25.557Z,11.33
2019-02-25T21:12:55.189Z,11.50
2019-02-25T21:15:24.639Z,11.50
2019-02-25T21:17:54.971Z,12.20
2019-02-25T21:20:23.677Z,13.80
2019-02-25T21:22:57.346Z,12.60
2019-02-25T21:25:26.404Z,12.30
2019-02-25T21:27:55.131Z,12.80
2019-02-25T21:30:23.253Z,12.03
2019-02-25T21:32:52.565Z,12.03
2019-02-25T21:35:23.494Z,12.70
2019-02-25T21:37:52.831Z,13.20
2019-02-25T21:40:25.068Z,12.90
2019-02-25T21:42:53.930Z,11.60
2019-02-25T21:45:25.279Z,12.63
2019-02-25T21:47:56.036Z,11.83
2019-02-25T21:50:26.345Z,12.93
2019-02-25T21:52:53.190Z,12.40
2019-02-25T21:55:23.757Z,11.80
2019-02-25T21:57:54.353Z,12.73
2019-02-25T22:00:23.085Z,12.90
2019-02-25T22:02:52.712Z,13.10
2019-02-25T22:05:23.495Z,12.57
2019-02-25T22:07:54.443Z,13.57
2019-02-25T22:10:21.306Z,14.80
2019-02-25T22:12:49.710Z,14.07
2019-02-25T22:15:22.348Z,13.87
2019-02-25T22:17:53.158Z,13.67
2019-02-25T22:20:22.635Z,12.63
2019-02-25T22:22:54.489Z,13.17
2019-02-25T22:25:23.982Z,12.87
2019-02-25T22:27:52.351Z,13.67
2019-02-25T22:30:20.754Z,13.60
2019-02-25T22:32:49.141Z,13.90
2019-02-25T22:35:17.539Z,13.43
2019-02-25T22:37:49.345Z,14.03
2019-02-25T22:40:17.348Z,13.10
2019-02-25T22:42:47.985Z,14.17
2019-02-25T22:45:18.983Z,13.93
2019-02-25T22:47:47.426Z,14.53
2019-02-25T22:50:15.887Z,13.47
2019-02-25T22:52:44.295Z,14.13
2019-02-25T22:55:15.296Z,12.53
2019-02-25T22:57:45.677Z,13.93
2019-02-25T23:00:28.323Z,13.53
2019-02-25T23:02:56.818Z,14.07
2019-02-25T23:05:25.557Z,15.03
2019-02-25T23:07:54.717Z,13.77
2019-02-25T23:10:24.147Z,13.80
2019-02-25T23:12:52.885Z,13.67
2019-02-25T23:15:23.299Z,13.47
2019-02-25T23:17:51.605Z,13.40
2019-02-25T23:20:20.010Z,14.67
2019-02-25T23:22:48.379Z,13.80
2019-02-25T23:25:16.787Z,13.50
2019-02-25T23:27:45.203Z,12.83
2019-02-25T23:30:14.638Z,13.67
2019-02-25T23:32:43.029Z,14.17
2019-02-25T23:35:13.624Z,12.97
2019-02-25T23:37:45.123Z,13.43
2019-02-25T23:40:14.503Z,13.30
2019-02-25T23:42:44.298Z,15.23
2019-02-25T23:45:15.492Z,14.03
2019-02-25T23:47:44.079Z,13.97
2019-02-25T23:50:14.038Z,13.83
2019-02-25T23:52:42.452Z,13.53
2019-02-25T23:55:14.356Z,13.43
2019-02-25T23:57:41.827Z,13.70
